createdAt,value
2023-02-06T00:00:01.866Z,72.17
2023-02-06T00:02:37.781Z,72.17
2023-02-06T00:05:10.532Z,72.64
2023-02-06T00:07:43.560Z,72.23
2023-02-06T00:10:16.864Z,72.50
2023-02-06T00:12:51.209Z,71.93
2023-02-06T00:15:24.399Z,72.60
2023-02-06T00:17:57.284Z,72.34
2023-02-06T00:20:30.211Z,72.04
2023-02-06T00:23:02.939Z,72.34
2023-02-06T00:25:36.135Z,72.29
2023-02-06T00:28:10.502Z,72.32
2023-02-06T00:30:46.559Z,72.02
2023-02-06T00:33:21.240Z,72.24
2023-02-06T00:35:54.260Z,72.74
2023-02-06T00:38:27.337Z,72.05
2023-02-06T00:41:00.601Z,72.68
2023-02-06T00:43:34.867Z,72.52
2023-02-06T00:46:07.635Z,72.50
2023-02-06T00:48:40.691Z,72.19
2023-02-06T00:51:13.350Z,72.33
2023-02-06T00:53:46.293Z,72.92
2023-02-06T00:56:19.481Z,72.59
2023-02-06T00:58:54.512Z,73.04
2023-02-06T01:01:27.781Z,72.78
2023-02-06T01:04:01.051Z,72.80
2023-02-06T01:06:34.126Z,72.72
2023-02-06T01:09:06.863Z,72.99
2023-02-06T01:11:39.774Z,72.62
2023-02-06T01:14:15.902Z,72.99
2023-02-06T01:16:49.505Z,73.26
2023-02-06T01:19:23.013Z,72.90
2023-02-06T01:21:55.994Z,73.01
2023-02-06T01:24:28.994Z,73.02
2023-02-06T01:27:01.857Z,72.86
2023-02-06T01:29:36.473Z,73.00
2023-02-06T01:32:09.389Z,72.70
2023-02-06T01:34:42.148Z,73.07
2023-02-06T01:37:14.996Z,73.18
2023-02-06T01:39:47.930Z,72.49
2023-02-06T01:42:21.062Z,73.03
2023-02-06T01:45:28.367Z,72.76
2023-02-06T01:48:04.881Z,72.67
2023-02-06T01:50:40.580Z,72.80
2023-02-06T01:53:18.979Z,72.95
2023-02-06T01:55:53.999Z,73.25
2023-02-06T01:58:31.411Z,73.38
2023-02-06T02:01:07.299Z,73.00
2023-02-06T02:03:45.710Z,73.14
2023-02-06T02:06:23.673Z,72.89
2023-02-06T02:08:58.817Z,73.46
2023-02-06T02:11:34.383Z,73.25
2023-02-06T02:14:10.144Z,73.45
2023-02-06T02:16:53.489Z,73.18
2023-02-06T02:19:55.658Z,73.57
2023-02-06T02:23:02.590Z,73.39
2023-02-06T02:26:03.434Z,73.21
2023-02-06T02:29:23.922Z,73.40
2023-02-06T02:32:19.269Z,73.18
2023-02-06T02:35:06.404Z,73.46
2023-02-06T02:37:47.832Z,73.15
2023-02-06T02:40:29.657Z,73.21
2023-02-06T02:43:12.856Z,73.19
2023-02-06T02:45:52.543Z,73.85
2023-02-06T02:48:31.158Z,73.30
2023-02-06T02:51:05.809Z,73.52
2023-02-06T02:53:38.779Z,73.43
2023-02-06T02:56:17.721Z,73.10
2023-02-06T02:58:54.603Z,73.42
2023-02-06T03:01:32.840Z,73.23
2023-02-06T03:04:13.259Z,73.05
2023-02-06T03:07:03.982Z,73.39
2023-02-06T03:09:47.567Z,73.63
2023-02-06T03:12:25.233Z,73.52
2023-02-06T03:15:02.480Z,73.35
2023-02-06T03:17:39.195Z,73.28
2023-02-06T03:20:19.499Z,72.96
2023-02-06T03:22:56.594Z,73.33
2023-02-06T03:25:37.171Z,73.51
2023-02-06T03:28:18.142Z,73.41
2023-02-06T03:30:57.657Z,73.47
2023-02-06T03:33:36.721Z,73.30
2023-02-06T03:36:15.406Z,73.35
2023-02-06T03:38:52.208Z,73.19
2023-02-06T03:41:30.511Z,73.47
2023-02-06T03:44:07.385Z,73.51
2023-02-06T03:46:42.755Z,73.65
2023-02-06T03:49:17.797Z,73.68
2023-02-06T03:51:54.795Z,73.43
2023-02-06T03:54:31.593Z,73.08
2023-02-06T03:57:07.740Z,73.42
2023-02-06T03:59:40.692Z,73.41
2023-02-06T04:02:14.580Z,73.51
2023-02-06T04:04:47.671Z,73.41
2023-02-06T04:07:25.925Z,73.26
2023-02-06T04:10:00.015Z,73.53
2023-02-06T04:12:33.114Z,73.35
2023-02-06T04:15:06.374Z,73.38
2023-02-06T04:17:53.636Z,73.53
2023-02-06T04:20:32.013Z,73.38
2023-02-06T04:23:04.646Z,73.49
2023-02-06T04:25:38.987Z,73.32
2023-02-06T04:28:12.019Z,73.51
2023-02-06T04:30:44.901Z,73.30
2023-02-06T04:33:20.482Z,73.24
2023-02-06T04:35:53.253Z,73.48
2023-02-06T04:38:26.089Z,73.47
2023-02-06T04:41:04.778Z,73.58
2023-02-06T04:43:37.645Z,73.74
2023-02-06T04:46:10.590Z,73.71
2023-02-06T04:48:43.566Z,73.52
2023-02-06T04:51:16.455Z,73.72
2023-02-06T04:53:49.249Z,73.65
2023-02-06T04:56:25.544Z,73.21
2023-02-06T04:58:58.534Z,72.96
2023-02-06T05:01:31.394Z,73.15
2023-02-06T05:04:04.374Z,73.45
2023-02-06T05:06:37.545Z,73.42
2023-02-06T05:09:11.108Z,73.12
2023-02-06T05:11:48.389Z,73.37
2023-02-06T05:14:21.468Z,73.53
2023-02-06T05:16:54.363Z,73.60
2023-02-06T05:19:27.249Z,73.50
2023-02-06T05:21:59.840Z,73.07
2023-02-06T05:24:32.785Z,73.26
2023-02-06T05:27:06.823Z,73.53
2023-02-06T05:29:39.711Z,73.55
2023-02-06T05:32:12.912Z,73.51
2023-02-06T05:34:46.225Z,73.16
2023-02-06T05:37:19.135Z,73.32
2023-02-06T05:39:51.887Z,73.07
2023-02-06T05:42:26.196Z,73.74
2023-02-06T05:44:59.297Z,73.49
2023-02-06T05:47:35.297Z,73.10
2023-02-06T05:50:08.677Z,73.41
2023-02-06T05:52:42.040Z,72.98
2023-02-06T05:55:17.083Z,72.69
2023-02-06T05:57:51.675Z,72.93
2023-02-06T06:00:27.764Z,72.98
2023-02-06T06:03:00.654Z,72.71
2023-02-06T06:05:34.359Z,72.85
2023-02-06T06:08:07.242Z,72.84
2023-02-06T06:10:40.183Z,72.66
2023-02-06T06:13:14.245Z,72.57
2023-02-06T06:15:50.592Z,72.69
2023-02-06T06:18:23.581Z,72.84
2023-02-06T06:20:56.532Z,72.69
2023-02-06T06:23:29.494Z,73.05
2023-02-06T06:26:02.348Z,73.08
2023-02-06T06:28:38.540Z,73.01
2023-02-06T06:31:12.774Z,73.07
2023-02-06T06:33:46.010Z,73.23
2023-02-06T06:36:26.961Z,73.24
2023-02-06T06:39:23.422Z,73.16
2023-02-06T06:42:02.906Z,72.80
2023-02-06T06:44:44.669Z,73.44
2023-02-06T06:47:17.822Z,73.38
2023-02-06T06:50:12.916Z,73.15
2023-02-06T06:52:56.653Z,73.10
2023-02-06T06:55:45.146Z,73.04
2023-02-06T06:58:23.857Z,72.94
2023-02-06T07:01:01.337Z,73.22
2023-02-06T07:03:34.495Z,73.05
2023-02-06T07:06:07.722Z,72.98
2023-02-06T07:08:42.162Z,73.28
2023-02-06T07:11:16.981Z,73.01
2023-02-06T07:13:49.935Z,73.26
2023-02-06T07:16:24.813Z,73.24
2023-02-06T07:18:58.030Z,72.80
2023-02-06T07:21:31.340Z,73.05
2023-02-06T07:24:05.428Z,73.15
2023-02-06T07:26:38.488Z,72.61
2023-02-06T07:29:11.451Z,72.88
2023-02-06T07:31:48.073Z,73.02
2023-02-06T07:34:21.234Z,72.53
2023-02-06T07:36:54.098Z,73.12
2023-02-06T07:39:27.074Z,73.01
2023-02-06T07:42:00.049Z,73.12
2023-02-06T07:44:38.996Z,73.42
2023-02-06T07:47:13.051Z,72.78
2023-02-06T07:49:46.016Z,73.05
2023-02-06T07:52:20.152Z,72.94
2023-02-06T07:54:53.135Z,73.49
2023-02-06T07:57:26.122Z,73.12
2023-02-06T07:59:59.085Z,73.15
2023-02-06T08:02:33.218Z,73.50
2023-02-06T08:05:06.632Z,73.35
2023-02-06T08:07:39.577Z,73.55
2023-02-06T08:10:12.442Z,73.66
2023-02-06T08:12:45.987Z,73.50
2023-02-06T08:15:19.678Z,73.46
2023-02-06T08:17:54.369Z,73.34
2023-02-06T08:20:29.218Z,73.41
2023-02-06T08:23:02.328Z,73.71
2023-02-06T08:25:37.990Z,73.20
2023-02-06T08:28:15.041Z,72.73
2023-02-06T08:30:50.626Z,73.02
2023-02-06T08:33:28.442Z,73.05
2023-02-06T08:36:03.090Z,73.03
2023-02-06T08:38:39.933Z,73.13
2023-02-06T08:41:24.011Z,72.93
2023-02-06T08:43:58.219Z,72.93
2023-02-06T08:46:33.528Z,72.94
2023-02-06T08:49:12.413Z,73.14
2023-02-06T08:51:45.939Z,73.25
2023-02-06T08:54:20.661Z,73.36
2023-02-06T08:56:58.555Z,73.30
2023-02-06T08:59:31.572Z,73.32
2023-02-06T09:02:06.047Z,73.58
2023-02-06T09:04:42.731Z,73.76
2023-02-06T09:07:17.343Z,73.60
2023-02-06T09:09:50.546Z,73.36
2023-02-06T09:12:23.436Z,73.50
2023-02-06T09:14:56.353Z,73.18
2023-02-06T09:17:31.683Z,73.21
2023-02-06T09:20:06.279Z,73.64
2023-02-06T09:22:41.241Z,73.70
2023-02-06T09:25:14.008Z,73.37
2023-02-06T09:27:47.476Z,73.29
2023-02-06T09:30:20.577Z,73.17
2023-02-06T09:32:53.579Z,73.17
2023-02-06T09:35:27.935Z,73.05
2023-02-06T09:38:01.151Z,73.03
2023-02-06T09:40:36.321Z,73.15
2023-02-06T09:43:13.129Z,73.04
2023-02-06T09:45:46.308Z,72.73
2023-02-06T09:48:21.518Z,73.10
2023-02-06T09:51:08.275Z,73.71
2023-02-06T09:53:48.636Z,72.92
2023-02-06T09:56:30.960Z,72.59
2023-02-06T09:59:11.319Z,73.44
2023-02-06T10:01:48.800Z,71.97
2023-02-06T10:04:36.083Z,72.24
2023-02-06T10:07:22.404Z,72.34
2023-02-06T10:09:59.656Z,72.99
2023-02-06T10:12:38.819Z,71.97
2023-02-06T10:15:15.860Z,73.57
2023-02-06T10:17:54.554Z,71.76
2023-02-06T10:20:34.704Z,73.18
2023-02-06T10:23:16.730Z,73.34
2023-02-06T10:25:58.860Z,73.31
2023-02-06T10:28:35.337Z,73.74
2023-02-06T10:31:24.551Z,73.67
2023-02-06T10:34:29.659Z,75.08
2023-02-06T10:37:19.322Z,72.85
2023-02-06T10:40:12.066Z,72.42
2023-02-06T10:42:55.934Z,72.74
2023-02-06T10:45:39.961Z,71.97
2023-02-06T10:48:22.480Z,72.09
2023-02-06T10:51:01.086Z,72.35
2023-02-06T10:53:37.231Z,71.34
2023-02-06T10:56:14.289Z,71.39
2023-02-06T10:58:51.219Z,72.89
2023-02-06T11:01:27.217Z,72.92
2023-02-06T11:04:08.649Z,72.64
2023-02-06T11:06:46.871Z,73.18
2023-02-06T11:09:20.042Z,72.67
2023-02-06T11:11:58.128Z,73.13
2023-02-06T11:14:35.726Z,71.60
2023-02-06T11:17:08.772Z,72.89
2023-02-06T11:19:44.568Z,70.90
2023-02-06T11:22:27.119Z,70.62
2023-02-06T11:25:03.296Z,70.98
2023-02-06T11:27:37.780Z,70.52
2023-02-06T11:30:26.280Z,71.40
2023-02-06T11:33:04.915Z,70.48
2023-02-06T11:35:41.266Z,72.67
2023-02-06T11:38:17.084Z,71.57
2023-02-06T11:40:59.296Z,69.85
2023-02-06T11:43:48.570Z,69.97
2023-02-06T11:46:25.798Z,69.90
2023-02-06T11:49:23.012Z,71.65
2023-02-06T11:51:59.655Z,69.14
2023-02-06T11:54:35.181Z,70.27
2023-02-06T11:57:20.805Z,70.63
2023-02-06T11:59:57.925Z,69.05
2023-02-06T12:02:33.409Z,70.49
2023-02-06T12:05:12.972Z,69.74
2023-02-06T12:07:53.659Z,69.33
2023-02-06T12:10:42.237Z,71.43
2023-02-06T12:13:21.946Z,70.79
2023-02-06T12:16:02.282Z,70.86
2023-02-06T12:18:38.620Z,68.38
2023-02-06T12:21:15.208Z,71.73
2023-02-06T12:23:55.701Z,69.00
2023-02-06T12:26:32.173Z,69.79
2023-02-06T12:29:11.121Z,71.45
2023-02-06T12:31:54.631Z,71.85
2023-02-06T12:34:42.587Z,73.08
2023-02-06T12:37:21.476Z,72.21
2023-02-06T12:39:57.086Z,72.75
2023-02-06T12:42:40.536Z,73.37
2023-02-06T12:45:24.891Z,72.61
2023-02-06T12:48:05.933Z,73.33
2023-02-06T12:50:48.909Z,73.06
2023-02-06T12:53:30.013Z,72.96
2023-02-06T12:56:06.801Z,73.40
2023-02-06T12:58:51.761Z,73.30
2023-02-06T13:01:59.314Z,73.70
2023-02-06T13:04:37.933Z,73.28
2023-02-06T13:07:14.627Z,73.63
2023-02-06T13:09:51.228Z,73.32
2023-02-06T13:12:26.785Z,73.36
2023-02-06T13:15:03.341Z,73.94
2023-02-06T13:17:41.465Z,73.62
2023-02-06T13:20:18.132Z,74.40
2023-02-06T13:22:53.948Z,73.73
2023-02-06T13:25:54.263Z,73.74
2023-02-06T13:29:09.763Z,73.70
2023-02-06T13:31:42.774Z,73.69
2023-02-06T13:34:18.287Z,73.41
2023-02-06T13:36:55.840Z,73.11
2023-02-06T13:39:32.528Z,72.98
2023-02-06T13:42:40.255Z,73.18
2023-02-06T13:45:19.980Z,73.17
2023-02-06T13:48:34.112Z,73.47
2023-02-06T13:51:38.793Z,73.05
2023-02-06T13:54:51.440Z,73.31
2023-02-06T13:57:39.056Z,73.32
2023-02-06T14:00:16.646Z,73.41
2023-02-06T14:02:52.746Z,73.21
2023-02-06T14:05:32.952Z,73.09
2023-02-06T14:08:19.520Z,73.10
2023-02-06T14:11:13.825Z,71.78
2023-02-06T14:14:06.831Z,72.45
2023-02-06T14:16:50.511Z,71.92
2023-02-06T14:19:32.444Z,72.14
2023-02-06T14:22:18.003Z,71.79
2023-02-06T14:25:09.844Z,71.25
2023-02-06T14:27:59.309Z,71.70
2023-02-06T14:30:42.740Z,71.63
2023-02-06T14:33:44.509Z,71.70
2023-02-06T14:36:30.878Z,72.25
2023-02-06T14:39:32.262Z,72.21
2023-02-06T14:42:13.200Z,72.62
2023-02-06T14:44:53.981Z,72.24
2023-02-06T14:47:30.273Z,72.43
2023-02-06T14:50:03.333Z,72.00
2023-02-06T14:52:37.121Z,73.25
2023-02-06T14:55:31.886Z,72.46
2023-02-06T14:58:06.952Z,72.76
2023-02-06T15:00:41.176Z,72.02
2023-02-06T15:03:17.524Z,72.74
2023-02-06T15:06:05.032Z,72.60
2023-02-06T15:08:38.358Z,72.76
2023-02-06T15:11:21.216Z,72.60
2023-02-06T15:13:59.757Z,72.88
2023-02-06T15:16:46.279Z,72.66
2023-02-06T15:19:21.054Z,73.08
2023-02-06T15:21:59.452Z,73.05
2023-02-06T15:24:46.097Z,72.80
2023-02-06T15:27:27.907Z,72.94
2023-02-06T15:30:02.750Z,72.42
2023-02-06T15:32:41.084Z,72.94
2023-02-06T15:35:21.739Z,72.32
2023-02-06T15:37:56.731Z,72.78
2023-02-06T15:40:33.792Z,72.87
2023-02-06T15:43:16.541Z,72.71
2023-02-06T15:45:51.622Z,72.34
2023-02-06T15:48:31.821Z,71.75
2023-02-06T15:51:19.726Z,72.36
2023-02-06T15:54:05.700Z,72.27
2023-02-06T15:56:42.074Z,72.41
2023-02-06T15:59:19.372Z,71.88
2023-02-06T16:01:56.312Z,72.84
2023-02-06T16:04:33.774Z,71.80
2023-02-06T16:07:13.747Z,71.93
2023-02-06T16:09:51.735Z,72.62
2023-02-06T16:12:24.873Z,72.38
2023-02-06T16:14:59.693Z,71.83
2023-02-06T16:17:38.304Z,73.83
2023-02-06T16:20:35.662Z,72.79
2023-02-06T16:23:24.116Z,73.12
2023-02-06T16:26:09.749Z,72.43
2023-02-06T16:28:59.146Z,72.64
2023-02-06T16:31:39.963Z,72.38
2023-02-06T16:34:23.129Z,72.64
2023-02-06T16:36:57.682Z,72.96
2023-02-06T16:39:38.182Z,72.99
2023-02-06T16:42:16.603Z,71.68
2023-02-06T16:44:52.858Z,72.10
2023-02-06T16:47:26.057Z,72.02
2023-02-06T16:49:59.128Z,72.43
2023-02-06T16:52:40.269Z,72.04
2023-02-06T16:55:18.144Z,72.27
2023-02-06T16:58:00.117Z,72.19
2023-02-06T17:00:39.093Z,71.80
2023-02-06T17:03:16.375Z,71.73
2023-02-06T17:06:04.692Z,72.07
2023-02-06T17:08:42.926Z,71.73
2023-02-06T17:11:19.154Z,71.85
2023-02-06T17:13:52.230Z,72.10
2023-02-06T17:16:33.721Z,71.34
2023-02-06T17:19:21.340Z,72.94
2023-02-06T17:21:54.326Z,72.26
2023-02-06T17:24:29.475Z,72.55
2023-02-06T17:27:04.864Z,72.11
2023-02-06T17:29:48.599Z,72.36
2023-02-06T17:32:23.713Z,73.28
2023-02-06T17:34:58.242Z,74.75
2023-02-06T17:37:31.412Z,73.53
2023-02-06T17:40:06.800Z,72.52
2023-02-06T17:42:39.974Z,72.98
2023-02-06T17:45:13.243Z,74.08
2023-02-06T17:47:46.412Z,74.48
2023-02-06T17:50:22.615Z,73.82
2023-02-06T17:52:56.282Z,73.45
2023-02-06T17:55:33.870Z,73.27
2023-02-06T17:58:12.961Z,73.29
2023-02-06T18:00:49.456Z,73.78
2023-02-06T18:03:26.218Z,74.10
2023-02-06T18:06:00.436Z,73.97
2023-02-06T18:08:33.855Z,74.02
2023-02-06T18:11:21.192Z,73.85
2023-02-06T18:13:58.514Z,73.56
2023-02-06T18:16:43.963Z,73.19
2023-02-06T18:19:27.220Z,72.17
2023-02-06T18:22:02.533Z,72.55
2023-02-06T18:24:42.380Z,72.32
2023-02-06T18:27:27.588Z,72.71
2023-02-06T18:30:04.713Z,72.44
2023-02-06T18:32:41.131Z,72.31
2023-02-06T18:39:05.587Z,72.70
2023-02-06T18:41:58.907Z,72.79
2023-02-06T18:44:41.710Z,72.95
2023-02-06T18:47:16.723Z,73.03
2023-02-06T18:49:53.271Z,73.11
2023-02-06T18:52:26.444Z,73.45
2023-02-06T18:54:59.691Z,72.98
2023-02-06T18:57:32.899Z,73.13
2023-02-06T19:00:13.865Z,72.90
2023-02-06T19:02:47.702Z,72.90
2023-02-06T19:05:21.651Z,72.93
2023-02-06T19:07:55.048Z,72.95
2023-02-06T19:10:41.820Z,72.95
2023-02-06T19:13:17.416Z,72.90
2023-02-06T19:15:51.928Z,72.94
2023-02-06T19:18:37.603Z,72.83
2023-02-06T19:21:23.326Z,73.50
2023-02-06T19:23:59.288Z,73.15
2023-02-06T19:26:36.215Z,73.36
2023-02-06T19:29:34.455Z,73.26
2023-02-06T19:32:13.637Z,73.40
2023-02-06T19:34:49.789Z,73.20
2023-02-06T19:37:25.101Z,73.33
2023-02-06T19:40:03.500Z,73.86
2023-02-06T19:42:39.335Z,73.45
2023-02-06T19:45:12.801Z,73.57
2023-02-06T19:47:48.306Z,73.75
2023-02-06T19:50:23.466Z,73.84
2023-02-06T19:52:56.400Z,73.53
2023-02-06T19:55:31.260Z,73.56
2023-02-06T19:58:10.323Z,74.65
2023-02-06T20:00:56.856Z,73.88
2023-02-06T20:03:40.252Z,74.09
2023-02-06T20:06:15.284Z,73.60
2023-02-06T20:08:51.208Z,74.35
2023-02-06T20:11:25.236Z,74.38
2023-02-06T20:14:03.496Z,73.40
2023-02-06T20:16:42.357Z,73.67
2023-02-06T20:19:22.098Z,73.95
2023-02-06T20:21:59.955Z,74.13
2023-02-06T20:24:37.256Z,74.22
2023-02-06T20:27:14.264Z,74.49
2023-02-06T20:29:57.284Z,74.22
2023-02-06T20:32:42.877Z,74.19
2023-02-06T20:35:23.869Z,74.05
2023-02-06T20:38:05.998Z,73.69
2023-02-06T20:40:43.807Z,73.87
2023-02-06T20:43:22.410Z,74.05
2023-02-06T20:45:59.968Z,73.87
2023-02-06T20:48:40.012Z,73.75
2023-02-06T20:51:24.625Z,74.15
2023-02-06T20:54:07.726Z,73.77
2023-02-06T20:56:42.492Z,73.95
2023-02-06T20:59:18.398Z,73.78
2023-02-06T21:01:51.639Z,74.11
2023-02-06T21:04:24.589Z,73.80
2023-02-06T21:06:59.334Z,73.65
2023-02-06T21:09:32.569Z,73.45
2023-02-06T21:12:06.075Z,74.10
2023-02-06T21:14:39.324Z,73.90
2023-02-06T21:17:12.683Z,73.89
2023-02-06T21:19:48.246Z,74.17
2023-02-06T21:22:25.335Z,73.67
2023-02-06T21:24:58.416Z,73.99
2023-02-06T21:27:31.787Z,73.62
2023-02-06T21:30:05.819Z,74.05
2023-02-06T21:32:38.686Z,73.99
2023-02-06T21:35:11.937Z,73.95
2023-02-06T21:37:46.411Z,73.96
2023-02-06T21:40:19.906Z,73.84
2023-02-06T21:42:53.227Z,73.64
2023-02-06T21:45:28.612Z,73.66
2023-02-06T21:48:01.527Z,73.72
2023-02-06T21:50:34.920Z,74.03
2023-02-06T21:53:10.231Z,73.75
2023-02-06T21:55:44.204Z,73.87
2023-02-06T21:58:17.132Z,73.76
2023-02-06T22:00:49.968Z,73.68
2023-02-06T22:03:24.250Z,74.09
2023-02-06T22:06:07.512Z,73.68
2023-02-06T22:08:42.597Z,73.88
2023-02-06T22:11:16.688Z,73.63
2023-02-06T22:13:50.103Z,73.68
2023-02-06T22:16:27.747Z,73.40
2023-02-06T22:19:01.372Z,73.42
2023-02-06T22:21:35.655Z,73.95
2023-02-06T22:24:12.481Z,73.62
2023-02-06T22:26:45.973Z,73.73
2023-02-06T22:29:19.346Z,73.58
2023-02-06T22:31:52.300Z,73.81
2023-02-06T22:34:24.945Z,73.69
2023-02-06T22:36:58.046Z,73.45
2023-02-06T22:39:32.317Z,73.81
2023-02-06T22:42:05.435Z,73.71
2023-02-06T22:44:38.296Z,73.39
2023-02-06T22:47:11.255Z,73.82
2023-02-06T22:49:44.329Z,73.86
2023-02-06T22:52:34.557Z,73.91
2023-02-06T22:55:09.655Z,73.75
2023-02-06T22:57:42.500Z,73.61
2023-02-06T23:00:18.417Z,73.81
2023-02-06T23:02:51.365Z,73.57
2023-02-06T23:05:25.048Z,73.98
2023-02-06T23:07:57.972Z,73.32
2023-02-06T23:10:32.050Z,73.61
2023-02-06T23:13:04.999Z,73.43
2023-02-06T23:15:41.021Z,73.31
2023-02-06T23:18:14.093Z,73.66
2023-02-06T23:20:46.807Z,73.18
2023-02-06T23:23:19.810Z,72.97
2023-02-06T23:25:54.593Z,73.33
2023-02-06T23:28:34.474Z,73.17
2023-02-06T23:31:11.811Z,73.18
2023-02-06T23:33:47.956Z,73.01
2023-02-06T23:36:27.128Z,72.86
2023-02-06T23:39:16.038Z,72.96
2023-02-06T23:41:50.930Z,73.02
2023-02-06T23:45:07.958Z,73.03
2023-02-06T23:47:40.897Z,73.19
2023-02-06T23:50:26.633Z,72.68
2023-02-06T23:52:59.591Z,72.91
2023-02-06T23:55:32.340Z,72.85
2023-02-06T23:58:07.349Z,73.10
